Monticello, MO

5:18 AM CST on February 10, 2016 (GMT -0600)
La Grange | | Change Station
CLOSE
Current Station
Personal Weather Station
Location: La Grange, MO
Elevation: 597 ft
Nearby Weather Stations

Elev 597 ft 40.04 °N, 91.50 °W | Updated 11 minutes ago

Partly Cloudy
Partly Cloudy
12.6 °F
Feels Like 5 °F
N
4.2
Wind Variable Wind from West

Today
High -- | Low -- °F
--% Chance of Precip.
Yesterday
High -- | Low -- °F
Precip. -- in
Pressure 30.13 in
Visibility 10.0 miles
Clouds Clear
Windchill 5 °F
Dew Point 7 °F
Humidity 79%
Rainfall 0.00 in
Snow Depth Not available.
7:06 AM 5:36 PM
Waxing Crescent, 5% visible
METAR KEOK 101055Z AUTO 28005KT 10SM CLR M11/M14 A3013 RMK AO2
Pressure 30.13 in
Visibility 10.0 miles
Clouds Clear
Windchill 5 °F
Dew Point 7 °F
Humidity 79%
Rainfall 0.00 in
Snow Depth Not available.
7:06 AM 5:36 PM
Waxing Crescent, 5% visible
METAR KEOK 101055Z AUTO 28005KT 10SM CLR M11/M14 A3013 RMK AO2

10-Day Weather Forecast

Almanac

Astronomy

Feb. 10, 2016 Rise Set
Actual Time
Civil Twilight
Nautical Twilight
Astronomical Twilight
Moon
Length of Visible Light
Length of Day
Tomorrow will be .
, % of the Moon is Illuminated

Today's Extremes

State Highs State Lows

Community

WunderPhotos

Upload Photos

1,891,830 photos uploaded!

WunderBlog® & News

Nearby

Air Quality

  Air Quality AQ Index Pollutant
Not available.

Snow Depth

Station Depth Elevation

Earthquake Activity

City Distance Mag. Time & Date
Minimum magnitude displayed is 2.5.

Coastal Water Temperatures

Place Temperature

Stations

Nearby Weather Stations

Station Location Temp. Windchill Dew Point Humidity Wind Precip. Elev Updated Type
                   

Watches & Warnings

There are currently no watches in effect.